sensor_id;sensor_type;location;lat;lon;timestamp;pressure;altitude;pressure_sealevel;temperature;humidity
53546;BME280;39432;51.902;10.844;2023-07-16T00:01:22;98918.91;;;23.00;100.00
53546;BME280;39432;51.902;10.844;2023-07-16T00:03:54;98921.59;;;22.96;100.00
53546;BME280;39432;51.902;10.844;2023-07-16T00:06:24;98923.72;;;23.15;100.00
53546;BME280;39432;51.902;10.844;2023-07-16T00:08:54;98941.38;;;23.19;100.00
53546;BME280;39432;51.902;10.844;2023-07-16T00:11:24;98935.50;;;22.80;100.00
53546;BME280;39432;51.902;10.844;2023-07-16T00:13:54;98950.41;;;22.72;100.00
53546;BME280;39432;51.902;10.844;2023-07-16T00:16:24;98939.97;;;22.69;100.00
53546;BME280;39432;51.902;10.844;2023-07-16T00:18:57;98936.38;;;22.97;100.00
53546;BME280;39432;51.902;10.844;2023-07-16T00:21:26;98936.53;;;23.79;100.00
53546;BME280;39432;51.902;10.844;2023-07-16T00:23:56;98917.25;;;23.90;100.00
53546;BME280;39432;51.902;10.844;2023-07-16T00:26:26;98899.69;;;23.74;100.00
53546;BME280;39432;51.902;10.844;2023-07-16T00:28:56;98920.44;;;22.69;100.00
53546;BME280;39432;51.902;10.844;2023-07-16T00:33:58;98929.09;;;22.52;100.00
53546;BME280;39432;51.902;10.844;2023-07-16T00:36:28;98916.41;;;22.26;100.00
53546;BME280;39432;51.902;10.844;2023-07-16T00:38:58;98940.13;;;22.20;100.00
53546;BME280;39432;51.902;10.844;2023-07-16T00:41:28;98952.66;;;22.14;100.00
53546;BME280;39432;51.902;10.844;2023-07-16T00:43:58;98973.53;;;22.08;100.00
53546;BME280;39432;51.902;10.844;2023-07-16T00:46:28;99008.63;;;22.21;100.00
53546;BME280;39432;51.902;10.844;2023-07-16T00:49:01;99010.59;;;22.21;100.00
53546;BME280;39432;51.902;10.844;2023-07-16T00:51:31;98998.66;;;22.20;100.00
53546;BME280;39432;51.902;10.844;2023-07-16T00:54:02;99002.09;;;22.42;100.00
53546;BME280;39432;51.902;10.844;2023-07-16T00:56:32;98997.47;;;22.33;100.00
53546;BME280;39432;51.902;10.844;2023-07-16T00:59:02;99006.16;;;22.44;100.00
53546;BME280;39432;51.902;10.844;2023-07-16T01:01:32;98995.13;;;22.23;100.00
53546;BME280;39432;51.902;10.844;2023-07-16T01:04:05;98988.75;;;22.23;100.00
53546;BME280;39432;51.902;10.844;2023-07-16T01:06:38;98977.94;;;22.33;100.00
53546;BME280;39432;51.902;10.844;2023-07-16T01:09:15;98949.56;;;22.44;100.00
53546;BME280;39432;51.902;10.844;2023-07-16T01:11:47;98932.72;;;22.80;100.00
53546;BME280;39432;51.902;10.844;2023-07-16T01:14:17;98949.91;;;22.54;100.00
53546;BME280;39432;51.902;10.844;2023-07-16T01:16:47;98965.06;;;22.69;100.00
53546;BME280;39432;51.902;10.844;2023-07-16T01:19:24;98975.56;;;22.60;100.00
53546;BME280;39432;51.902;10.844;2023-07-16T01:22:08;98983.78;;;22.16;100.00
53546;BME280;39432;51.902;10.844;2023-07-16T01:25:05;98997.31;;;21.69;100.00
53546;BME280;39432;51.902;10.844;2023-07-16T01:27:59;98981.19;;;21.87;100.00
53546;BME280;39432;51.902;10.844;2023-07-16T01:30:37;98964.72;;;21.69;100.00
53546;BME280;39432;51.902;10.844;2023-07-16T01:33:12;98924.94;;;22.46;100.00
53546;BME280;39432;51.902;10.844;2023-07-16T01:35:43;98950.56;;;21.87;100.00
53546;BME280;39432;51.902;10.844;2023-07-16T01:38:14;98963.91;;;21.44;100.00
53546;BME280;39432;51.902;10.844;2023-07-16T01:40:45;98958.22;;;21.90;100.00
53546;BME280;39432;51.902;10.844;2023-07-16T01:43:15;98948.44;;;22.08;100.00
53546;BME280;39432;51.902;10.844;2023-07-16T01:45:48;98950.28;;;22.41;100.00
53546;BME280;39432;51.902;10.844;2023-07-16T01:48:27;98949.56;;;22.44;100.00
53546;BME280;39432;51.902;10.844;2023-07-16T01:50:58;98932.91;;;22.19;100.00
53546;BME280;39432;51.902;10.844;2023-07-16T01:53:28;98930.59;;;22.09;100.00
53546;BME280;39432;51.902;10.844;2023-07-16T01:56:00;98943.38;;;22.10;100.00
53546;BME280;39432;51.902;10.844;2023-07-16T01:58:30;98968.66;;;21.68;100.00
53546;BME280;39432;51.902;10.844;2023-07-16T02:01:03;98939.88;;;21.64;100.00
53546;BME280;39432;51.902;10.844;2023-07-16T02:03:33;98898.66;;;22.47;100.00
53546;BME280;39432;51.902;10.844;2023-07-16T02:06:04;98948.25;;;22.25;100.00
53546;BME280;39432;51.902;10.844;2023-07-16T02:08:34;98984.91;;;21.54;100.00
53546;BME280;39432;51.902;10.844;2023-07-16T02:11:04;99001.41;;;21.96;100.00
53546;BME280;39432;51.902;10.844;2023-07-16T02:13:34;98986.56;;;22.04;100.00
53546;BME280;39432;51.902;10.844;2023-07-16T02:16:07;98982.84;;;22.12;100.00
53546;BME280;39432;51.902;10.844;2023-07-16T02:18:37;98977.81;;;22.30;100.00
53546;BME280;39432;51.902;10.844;2023-07-16T02:21:06;98987.00;;;21.69;100.00
53546;BME280;39432;51.902;10.844;2023-07-16T02:23:36;98997.44;;;21.72;100.00
53546;BME280;39432;51.902;10.844;2023-07-16T02:26:06;99005.34;;;21.70;100.00
53546;BME280;39432;51.902;10.844;2023-07-16T02:28:36;98998.50;;;21.80;100.00
53546;BME280;39432;51.902;10.844;2023-07-16T02:31:09;99009.31;;;21.81;100.00
53546;BME280;39432;51.902;10.844;2023-07-16T02:33:40;98989.81;;;21.94;100.00
53546;BME280;39432;51.902;10.844;2023-07-16T02:36:10;99000.72;;;22.23;100.00
53546;BME280;39432;51.902;10.844;2023-07-16T02:38:41;98988.84;;;22.91;100.00
53546;BME280;39432;51.902;10.844;2023-07-16T02:41:11;98960.75;;;23.44;100.00
53546;BME280;39432;51.902;10.844;2023-07-16T02:43:41;98949.75;;;23.35;100.00
53546;BME280;39432;51.902;10.844;2023-07-16T02:46:15;98957.81;;;22.80;100.00
53546;BME280;39432;51.902;10.844;2023-07-16T02:48:45;98961.53;;;23.28;100.00
53546;BME280;39432;51.902;10.844;2023-07-16T02:51:15;98943.03;;;23.52;100.00
53546;BME280;39432;51.902;10.844;2023-07-16T02:53:44;98939.75;;;24.32;100.00
53546;BME280;39432;51.902;10.844;2023-07-16T02:56:14;98943.53;;;24.05;100.00
53546;BME280;39432;51.902;10.844;2023-07-16T02:58:45;98942.44;;;23.62;100.00
53546;BME280;39432;51.902;10.844;2023-07-16T03:01:17;98955.44;;;22.26;100.00
53546;BME280;39432;51.902;10.844;2023-07-16T03:03:47;98972.38;;;22.33;100.00
53546;BME280;39432;51.902;10.844;2023-07-16T03:06:17;98985.44;;;22.57;100.00
53546;BME280;39432;51.902;10.844;2023-07-16T03:08:50;98982.59;;;22.42;100.00
53546;BME280;39432;51.902;10.844;2023-07-16T03:11:20;98978.63;;;22.43;100.00
53546;BME280;39432;51.902;10.844;2023-07-16T03:13:50;98994.94;;;22.16;100.00
53546;BME280;39432;51.902;10.844;2023-07-16T03:16:23;98987.03;;;22.18;100.00
53546;BME280;39432;51.902;10.844;2023-07-16T03:18:53;98999.31;;;21.80;100.00
53546;BME280;39432;51.902;10.844;2023-07-16T03:21:23;99000.00;;;21.77;100.00
53546;BME280;39432;51.902;10.844;2023-07-16T03:23:53;98998.03;;;22.02;100.00
53546;BME280;39432;51.902;10.844;2023-07-16T03:26:23;98985.75;;;22.03;100.00
53546;BME280;39432;51.902;10.844;2023-07-16T03:28:53;98988.16;;;21.56;100.00
53546;BME280;39432;51.902;10.844;2023-07-16T03:31:26;98991.75;;;21.56;100.00
53546;BME280;39432;51.902;10.844;2023-07-16T03:33:57;98978.41;;;21.74;100.00
53546;BME280;39432;51.902;10.844;2023-07-16T03:36:29;98984.31;;;21.97;100.00
53546;BME280;39432;51.902;10.844;2023-07-16T03:38:59;98982.84;;;21.88;100.00
53546;BME280;39432;51.902;10.844;2023-07-16T03:41:29;98979.03;;;21.92;100.00
53546;BME280;39432;51.902;10.844;2023-07-16T03:43:59;98979.13;;;21.96;100.00
53546;BME280;39432;51.902;10.844;2023-07-16T03:46:36;98978.91;;;21.76;100.00
53546;BME280;39432;51.902;10.844;2023-07-16T03:49:07;98986.41;;;21.64;100.00
53546;BME280;39432;51.902;10.844;2023-07-16T03:51:37;98993.97;;;21.75;100.00
53546;BME280;39432;51.902;10.844;2023-07-16T03:54:07;98996.28;;;21.86;100.00
53546;BME280;39432;51.902;10.844;2023-07-16T03:56:37;98994.22;;;21.70;100.00
53546;BME280;39432;51.902;10.844;2023-07-16T03:59:06;98996.06;;;21.66;100.00
53546;BME280;39432;51.902;10.844;2023-07-16T04:01:39;99006.72;;;21.64;100.00
53546;BME280;39432;51.902;10.844;2023-07-16T04:04:09;99019.50;;;21.65;100.00
53546;BME280;39432;51.902;10.844;2023-07-16T04:06:39;99028.13;;;21.39;100.00
53546;BME280;39432;51.902;10.844;2023-07-16T04:09:09;99026.69;;;21.54;100.00
53546;BME280;39432;51.902;10.844;2023-07-16T04:11:39;99041.72;;;21.41;100.00
53546;BME280;39432;51.902;10.844;2023-07-16T04:14:09;99038.72;;;21.25;100.00
53546;BME280;39432;51.902;10.844;2023-07-16T04:16:41;99041.78;;;20.99;100.00
53546;BME280;39432;51.902;10.844;2023-07-16T04:19:11;99054.44;;;21.09;100.00
53546;BME280;39432;51.902;10.844;2023-07-16T04:21:41;99058.38;;;21.08;100.00
53546;BME280;39432;51.902;10.844;2023-07-16T04:24:11;99062.88;;;21.54;100.00
53546;BME280;39432;51.902;10.844;2023-07-16T04:26:41;99056.31;;;22.07;100.00
53546;BME280;39432;51.902;10.844;2023-07-16T04:29:11;99044.75;;;22.82;100.00
53546;BME280;39432;51.902;10.844;2023-07-16T04:31:44;99043.16;;;23.37;100.00
53546;BME280;39432;51.902;10.844;2023-07-16T04:34:13;99038.56;;;23.73;100.00
53546;BME280;39432;51.902;10.844;2023-07-16T04:36:44;99039.22;;;23.54;100.00
53546;BME280;39432;51.902;10.844;2023-07-16T04:39:14;99053.84;;;22.67;100.00
53546;BME280;39432;51.902;10.844;2023-07-16T04:41:43;99057.50;;;22.43;100.00
53546;BME280;39432;51.902;10.844;2023-07-16T04:44:13;99070.84;;;22.50;100.00
53546;BME280;39432;51.902;10.844;2023-07-16T04:46:46;99087.38;;;22.43;100.00
53546;BME280;39432;51.902;10.844;2023-07-16T04:49:16;99093.63;;;22.64;100.00
53546;BME280;39432;51.902;10.844;2023-07-16T04:51:46;99099.88;;;22.12;100.00
53546;BME280;39432;51.902;10.844;2023-07-16T04:54:15;99113.97;;;22.28;100.00
53546;BME280;39432;51.902;10.844;2023-07-16T04:56:45;99117.72;;;21.99;100.00
53546;BME280;39432;51.902;10.844;2023-07-16T04:59:15;99124.50;;;22.10;100.00
53546;BME280;39432;51.902;10.844;2023-07-16T05:01:48;99131.88;;;21.94;100.00
53546;BME280;39432;51.902;10.844;2023-07-16T05:04:18;99131.03;;;22.14;100.00
53546;BME280;39432;51.902;10.844;2023-07-16T05:06:48;99137.66;;;22.22;100.00
53546;BME280;39432;51.902;10.844;2023-07-16T05:09:18;99128.56;;;22.13;100.00
53546;BME280;39432;51.902;10.844;2023-07-16T05:11:48;99133.47;;;22.16;100.00
53546;BME280;39432;51.902;10.844;2023-07-16T05:14:18;99139.88;;;21.95;100.00
53546;BME280;39432;51.902;10.844;2023-07-16T05:16:50;99139.28;;;21.77;100.00
53546;BME280;39432;51.902;10.844;2023-07-16T05:19:23;99142.09;;;21.90;100.00
53546;BME280;39432;51.902;10.844;2023-07-16T05:21:53;99138.91;;;22.12;100.00
53546;BME280;39432;51.902;10.844;2023-07-16T05:24:23;99134.00;;;22.09;100.00
53546;BME280;39432;51.902;10.844;2023-07-16T05:26:52;99147.59;;;21.65;100.00
53546;BME280;39432;51.902;10.844;2023-07-16T05:29:22;99151.38;;;21.94;100.00
53546;BME280;39432;51.902;10.844;2023-07-16T05:31:55;99155.19;;;21.77;100.00
53546;BME280;39432;51.902;10.844;2023-07-16T05:34:25;99157.50;;;22.20;100.00
53546;BME280;39432;51.902;10.844;2023-07-16T05:36:55;99162.66;;;22.43;100.00
53546;BME280;39432;51.902;10.844;2023-07-16T05:39:25;99156.22;;;22.30;100.00
53546;BME280;39432;51.902;10.844;2023-07-16T05:41:55;99170.50;;;21.83;100.00
53546;BME280;39432;51.902;10.844;2023-07-16T05:44:25;99173.38;;;21.74;100.00
53546;BME280;39432;51.902;10.844;2023-07-16T05:46:57;99172.84;;;22.14;100.00
53546;BME280;39432;51.902;10.844;2023-07-16T05:49:27;99165.56;;;22.01;100.00
53546;BME280;39432;51.902;10.844;2023-07-16T05:54:28;99162.06;;;23.95;100.00
53546;BME280;39432;51.902;10.844;2023-07-16T05:56:58;99154.00;;;24.21;100.00
53546;BME280;39432;51.902;10.844;2023-07-16T05:59:28;99160.94;;;24.11;97.40
53546;BME280;39432;51.902;10.844;2023-07-16T06:02:04;99168.66;;;24.62;91.06
53546;BME280;39432;51.902;10.844;2023-07-16T06:04:34;99162.13;;;24.89;89.35
53546;BME280;39432;51.902;10.844;2023-07-16T06:07:05;99171.31;;;24.90;85.73
53546;BME280;39432;51.902;10.844;2023-07-16T06:09:35;99165.31;;;25.23;82.35
53546;BME280;39432;51.902;10.844;2023-07-16T06:12:05;99171.00;;;25.85;81.35
53546;BME280;39432;51.902;10.844;2023-07-16T06:14:35;99167.72;;;25.25;77.95
53546;BME280;39432;51.902;10.844;2023-07-16T06:17:07;99169.72;;;24.73;81.33
53546;BME280;39432;51.902;10.844;2023-07-16T06:19:37;99169.84;;;24.45;82.05
53546;BME280;39432;51.902;10.844;2023-07-16T06:22:07;99171.31;;;24.11;82.06
53546;BME280;39432;51.902;10.844;2023-07-16T06:24:37;99174.19;;;23.99;84.75
53546;BME280;39432;51.902;10.844;2023-07-16T06:27:07;99178.41;;;24.36;80.71
53546;BME280;39432;51.902;10.844;2023-07-16T06:29:37;99184.44;;;24.54;78.42
53546;BME280;39432;51.902;10.844;2023-07-16T06:32:10;99185.94;;;24.83;76.99
53546;BME280;39432;51.902;10.844;2023-07-16T06:34:40;99196.69;;;25.32;75.41
53546;BME280;39432;51.902;10.844;2023-07-16T06:37:10;99193.13;;;25.16;74.31
53546;BME280;39432;51.902;10.844;2023-07-16T06:39:40;99198.34;;;25.33;76.01
53546;BME280;39432;51.902;10.844;2023-07-16T06:42:10;99197.63;;;25.94;73.82
53546;BME280;39432;51.902;10.844;2023-07-16T06:44:40;99192.81;;;24.86;74.28
53546;BME280;39432;51.902;10.844;2023-07-16T06:47:12;99203.25;;;25.75;72.50
53546;BME280;39432;51.902;10.844;2023-07-16T06:49:43;99207.22;;;25.19;71.42
53546;BME280;39432;51.902;10.844;2023-07-16T06:52:18;99212.38;;;25.17;72.01
53546;BME280;39432;51.902;10.844;2023-07-16T06:54:49;99210.91;;;24.57;73.82
53546;BME280;39432;51.902;10.844;2023-07-16T06:57:19;99217.03;;;24.47;74.73
53546;BME280;39432;51.902;10.844;2023-07-16T06:59:49;99207.66;;;25.21;70.99
53546;BME280;39432;51.902;10.844;2023-07-16T07:02:21;99221.72;;;25.06;71.43
53546;BME280;39432;51.902;10.844;2023-07-16T07:04:51;99213.97;;;24.67;74.04
53546;BME280;39432;51.902;10.844;2023-07-16T07:07:21;99221.19;;;24.53;76.96
53546;BME280;39432;51.902;10.844;2023-07-16T07:09:51;99218.22;;;24.61;75.76
53546;BME280;39432;51.902;10.844;2023-07-16T07:12:21;99222.94;;;24.29;75.60
53546;BME280;39432;51.902;10.844;2023-07-16T07:14:51;99219.47;;;24.80;73.18
53546;BME280;39432;51.902;10.844;2023-07-16T07:17:23;99227.22;;;24.86;71.82
53546;BME280;39432;51.902;10.844;2023-07-16T07:19:53;99226.44;;;25.21;67.45
53546;BME280;39432;51.902;10.844;2023-07-16T07:22:23;99238.06;;;24.28;66.61
53546;BME280;39432;51.902;10.844;2023-07-16T07:24:53;99234.34;;;24.08;67.92
53546;BME280;39432;51.902;10.844;2023-07-16T07:27:23;99226.19;;;25.10;69.10
53546;BME280;39432;51.902;10.844;2023-07-16T07:29:53;99234.53;;;24.91;65.94
53546;BME280;39432;51.902;10.844;2023-07-16T07:32:26;99230.78;;;25.54;67.06
53546;BME280;39432;51.902;10.844;2023-07-16T07:34:56;99236.19;;;25.62;64.45
53546;BME280;39432;51.902;10.844;2023-07-16T07:37:29;99232.03;;;26.34;62.04
53546;BME280;39432;51.902;10.844;2023-07-16T07:39:59;99237.13;;;25.70;57.47
53546;BME280;39432;51.902;10.844;2023-07-16T07:42:30;99243.31;;;25.60;57.27
53546;BME280;39432;51.902;10.844;2023-07-16T07:45:00;99243.06;;;25.30;56.97
53546;BME280;39432;51.902;10.844;2023-07-16T07:47:33;99235.00;;;25.63;56.37
53546;BME280;39432;51.902;10.844;2023-07-16T07:50:04;99236.25;;;24.80;56.47
53546;BME280;39432;51.902;10.844;2023-07-16T07:52:34;99241.63;;;25.20;55.87
53546;BME280;39432;51.902;10.844;2023-07-16T07:55:05;99236.56;;;25.61;55.64
53546;BME280;39432;51.902;10.844;2023-07-16T07:57:35;99243.22;;;26.11;54.11
53546;BME280;39432;51.902;10.844;2023-07-16T08:00:07;99233.88;;;24.97;55.93
53546;BME280;39432;51.902;10.844;2023-07-16T08:02:43;99246.50;;;25.39;55.02
53546;BME280;39432;51.902;10.844;2023-07-16T08:05:13;99252.84;;;25.20;53.65
53546;BME280;39432;51.902;10.844;2023-07-16T08:07:43;99255.41;;;25.44;54.92
53546;BME280;39432;51.902;10.844;2023-07-16T08:10:13;99253.84;;;24.80;56.57
53546;BME280;39432;51.902;10.844;2023-07-16T08:12:43;99260.16;;;24.77;56.49
53546;BME280;39432;51.902;10.844;2023-07-16T08:15:13;99248.41;;;24.56;60.04
53546;BME280;39432;51.902;10.844;2023-07-16T08:17:46;99242.16;;;25.26;58.67
53546;BME280;39432;51.902;10.844;2023-07-16T08:20:16;99247.88;;;24.97;57.53
53546;BME280;39432;51.902;10.844;2023-07-16T08:22:46;99246.81;;;24.70;57.01
53546;BME280;39432;51.902;10.844;2023-07-16T08:25:16;99255.31;;;24.74;57.55
53546;BME280;39432;51.902;10.844;2023-07-16T08:27:47;99253.47;;;25.29;56.33
53546;BME280;39432;51.902;10.844;2023-07-16T08:30:17;99248.34;;;24.84;58.19
53546;BME280;39432;51.902;10.844;2023-07-16T08:32:49;99255.66;;;25.55;58.25
53546;BME280;39432;51.902;10.844;2023-07-16T08:35:19;99260.88;;;26.11;57.09
53546;BME280;39432;51.902;10.844;2023-07-16T08:37:49;99253.88;;;25.12;55.17
53546;BME280;39432;51.902;10.844;2023-07-16T08:40:19;99253.13;;;25.15;55.33
53546;BME280;39432;51.902;10.844;2023-07-16T08:42:50;99255.19;;;25.34;55.95
53546;BME280;39432;51.902;10.844;2023-07-16T08:45:21;99266.13;;;25.93;56.43
53546;BME280;39432;51.902;10.844;2023-07-16T08:47:54;99258.09;;;26.34;54.07
53546;BME280;39432;51.902;10.844;2023-07-16T08:50:25;99260.06;;;26.11;55.64
53546;BME280;39432;51.902;10.844;2023-07-16T08:52:59;99255.72;;;25.59;54.26
53546;BME280;39432;51.902;10.844;2023-07-16T08:55:30;99262.56;;;26.58;55.83
53546;BME280;39432;51.902;10.844;2023-07-16T08:58:01;99263.63;;;26.50;54.66
53546;BME280;39432;51.902;10.844;2023-07-16T09:00:31;99256.75;;;25.70;55.82
53546;BME280;39432;51.902;10.844;2023-07-16T09:03:04;99259.13;;;25.33;57.31
53546;BME280;39432;51.902;10.844;2023-07-16T09:05:35;99270.38;;;24.69;56.40
53546;BME280;39432;51.902;10.844;2023-07-16T09:08:07;99268.63;;;24.21;57.43
53546;BME280;39432;51.902;10.844;2023-07-16T09:10:37;99263.75;;;24.93;58.19
53546;BME280;39432;51.902;10.844;2023-07-16T09:13:07;99273.63;;;24.87;59.40
53546;BME280;39432;51.902;10.844;2023-07-16T09:15:37;99272.09;;;24.90;58.67
53546;BME280;39432;51.902;10.844;2023-07-16T09:18:10;99276.69;;;25.14;58.44
53546;BME280;39432;51.902;10.844;2023-07-16T09:20:42;99263.22;;;25.35;56.77
53546;BME280;39432;51.902;10.844;2023-07-16T09:23:12;99262.66;;;25.65;56.12
53546;BME280;39432;51.902;10.844;2023-07-16T09:25:43;99260.19;;;25.79;53.80
53546;BME280;39432;51.902;10.844;2023-07-16T09:28:13;99266.53;;;26.15;50.77
53546;BME280;39432;51.902;10.844;2023-07-16T09:30:43;99267.47;;;26.42;49.96
53546;BME280;39432;51.902;10.844;2023-07-16T09:33:16;99267.19;;;25.03;52.12
53546;BME280;39432;51.902;10.844;2023-07-16T09:35:48;99272.31;;;25.83;51.75
53546;BME280;39432;51.902;10.844;2023-07-16T09:38:18;99275.72;;;25.57;51.61
53546;BME280;39432;51.902;10.844;2023-07-16T09:40:48;99283.84;;;25.62;52.63
53546;BME280;39432;51.902;10.844;2023-07-16T09:43:18;99285.88;;;25.65;51.02
53546;BME280;39432;51.902;10.844;2023-07-16T09:45:49;99287.44;;;24.80;50.71
53546;BME280;39432;51.902;10.844;2023-07-16T09:48:21;99291.22;;;25.35;50.78
53546;BME280;39432;51.902;10.844;2023-07-16T09:50:53;99288.78;;;25.69;49.08
53546;BME280;39432;51.902;10.844;2023-07-16T09:53:23;99290.34;;;25.66;50.17
53546;BME280;39432;51.902;10.844;2023-07-16T09:55:55;99285.81;;;25.97;47.93
53546;BME280;39432;51.902;10.844;2023-07-16T09:58:26;99287.22;;;26.07;48.08
53546;BME280;39432;51.902;10.844;2023-07-16T10:00:57;99306.06;;;25.20;49.92
53546;BME280;39432;51.902;10.844;2023-07-16T10:03:30;99295.38;;;25.77;47.80
53546;BME280;39432;51.902;10.844;2023-07-16T10:06:07;99302.59;;;25.42;47.07
53546;BME280;39432;51.902;10.844;2023-07-16T10:08:37;99307.78;;;25.60;47.31
53546;BME280;39432;51.902;10.844;2023-07-16T10:11:15;99298.22;;;25.61;45.98
53546;BME280;39432;51.902;10.844;2023-07-16T10:13:49;99302.78;;;26.23;46.84
53546;BME280;39432;51.902;10.844;2023-07-16T10:16:20;99310.91;;;25.90;47.87
53546;BME280;39432;51.902;10.844;2023-07-16T10:18:54;99313.31;;;25.91;48.15
53546;BME280;39432;51.902;10.844;2023-07-16T10:21:25;99304.91;;;25.91;47.71
53546;BME280;39432;51.902;10.844;2023-07-16T10:23:59;99312.38;;;25.84;49.00
53546;BME280;39432;51.902;10.844;2023-07-16T10:26:30;99297.47;;;25.64;49.56
53546;BME280;39432;51.902;10.844;2023-07-16T10:29:00;99303.81;;;26.15;48.71
53546;BME280;39432;51.902;10.844;2023-07-16T10:31:33;99300.19;;;26.15;47.25
53546;BME280;39432;51.902;10.844;2023-07-16T10:34:05;99308.84;;;26.06;48.53
53546;BME280;39432;51.902;10.844;2023-07-16T10:36:37;99311.84;;;25.97;49.56
53546;BME280;39432;51.902;10.844;2023-07-16T10:39:07;99311.47;;;25.64;49.40
53546;BME280;39432;51.902;10.844;2023-07-16T10:41:37;99306.81;;;26.26;49.32
53546;BME280;39432;51.902;10.844;2023-07-16T10:44:08;99314.81;;;26.24;49.75
53546;BME280;39432;51.902;10.844;2023-07-16T10:46:38;99303.00;;;25.95;49.73
53546;BME280;39432;51.902;10.844;2023-07-16T10:49:10;99305.97;;;26.64;48.94
53546;BME280;39432;51.902;10.844;2023-07-16T10:51:40;99309.66;;;26.07;47.54
53546;BME280;39432;51.902;10.844;2023-07-16T10:54:10;99310.44;;;26.88;49.12
53546;BME280;39432;51.902;10.844;2023-07-16T10:56:41;99317.00;;;26.34;48.87
53546;BME280;39432;51.902;10.844;2023-07-16T10:59:11;99304.75;;;26.04;49.66
53546;BME280;39432;51.902;10.844;2023-07-16T11:01:41;99307.84;;;25.79;49.96
53546;BME280;39432;51.902;10.844;2023-07-16T11:04:13;99311.84;;;25.97;44.54
53546;BME280;39432;51.902;10.844;2023-07-16T11:06:44;99311.56;;;27.07;44.91
53546;BME280;39432;51.902;10.844;2023-07-16T11:09:14;99309.97;;;26.63;45.02
53546;BME280;39432;51.902;10.844;2023-07-16T11:11:44;99306.91;;;25.91;45.89
53546;BME280;39432;51.902;10.844;2023-07-16T11:14:14;99315.19;;;26.84;45.64
53546;BME280;39432;51.902;10.844;2023-07-16T11:16:44;99312.28;;;26.80;45.29
53546;BME280;39432;51.902;10.844;2023-07-16T11:19:20;99310.53;;;26.49;45.55
53546;BME280;39432;51.902;10.844;2023-07-16T11:21:50;99310.78;;;26.64;46.05
53546;BME280;39432;51.902;10.844;2023-07-16T11:24:20;99317.78;;;26.96;46.06
53546;BME280;39432;51.902;10.844;2023-07-16T11:26:50;99317.91;;;26.58;45.88
53546;BME280;39432;51.902;10.844;2023-07-16T11:29:20;99311.31;;;26.92;46.26
53546;BME280;39432;51.902;10.844;2023-07-16T11:31:51;99299.84;;;26.59;46.84
53546;BME280;39432;51.902;10.844;2023-07-16T11:34:24;99312.06;;;26.89;46.25
53546;BME280;39432;51.902;10.844;2023-07-16T11:36:54;99301.50;;;26.40;46.82
53546;BME280;39432;51.902;10.844;2023-07-16T11:39:27;99315.47;;;27.02;46.94
53546;BME280;39432;51.902;10.844;2023-07-16T11:41:58;99310.94;;;26.71;46.73
53546;BME280;39432;51.902;10.844;2023-07-16T11:44:32;99307.44;;;26.55;46.64
53546;BME280;39432;51.902;10.844;2023-07-16T11:47:03;99309.84;;;27.02;46.31
53546;BME280;39432;51.902;10.844;2023-07-16T11:49:36;99303.81;;;26.77;45.17
53546;BME280;39432;51.902;10.844;2023-07-16T11:52:07;99316.88;;;26.46;44.97
53546;BME280;39432;51.902;10.844;2023-07-16T11:54:37;99307.56;;;26.23;46.23
53546;BME280;39432;51.902;10.844;2023-07-16T11:57:07;99307.06;;;27.25;46.00
53546;BME280;39432;51.902;10.844;2023-07-16T11:59:37;99308.81;;;26.87;44.99
53546;BME280;39432;51.902;10.844;2023-07-16T12:02:07;99311.66;;;26.68;45.02
53546;BME280;39432;51.902;10.844;2023-07-16T12:04:39;99308.63;;;26.99;44.66
53546;BME280;39432;51.902;10.844;2023-07-16T12:07:09;99307.06;;;27.51;45.59
53546;BME280;39432;51.902;10.844;2023-07-16T12:09:39;99307.81;;;27.22;43.68
53546;BME280;39432;51.902;10.844;2023-07-16T12:12:09;99322.66;;;26.99;43.01
53546;BME280;39432;51.902;10.844;2023-07-16T12:14:41;99310.75;;;26.83;43.65
53546;BME280;39432;51.902;10.844;2023-07-16T12:17:11;99306.63;;;27.00;44.87
53546;BME280;39432;51.902;10.844;2023-07-16T12:19:43;99318.94;;;27.68;45.24
53546;BME280;39432;51.902;10.844;2023-07-16T12:22:16;99311.06;;;26.78;43.65
53546;BME280;39432;51.902;10.844;2023-07-16T12:24:47;99312.28;;;26.58;45.96
53546;BME280;39432;51.902;10.844;2023-07-16T12:27:18;99314.91;;;26.70;45.42
53546;BME280;39432;51.902;10.844;2023-07-16T12:29:48;99304.63;;;27.23;45.34
53546;BME280;39432;51.902;10.844;2023-07-16T12:32:19;99315.16;;;27.30;44.66
53546;BME280;39432;51.902;10.844;2023-07-16T12:34:52;99299.94;;;27.31;43.80
53546;BME280;39432;51.902;10.844;2023-07-16T12:37:22;99310.88;;;27.13;45.08
53546;BME280;39432;51.902;10.844;2023-07-16T12:39:52;99303.06;;;27.26;45.61
53546;BME280;39432;51.902;10.844;2023-07-16T12:42:22;99323.28;;;27.62;45.09
53546;BME280;39432;51.902;10.844;2023-07-16T12:44:52;99312.91;;;27.39;44.07
53546;BME280;39432;51.902;10.844;2023-07-16T12:47:22;99311.50;;;27.52;44.36
53546;BME280;39432;51.902;10.844;2023-07-16T12:49:54;99323.84;;;27.71;43.97
53546;BME280;39432;51.902;10.844;2023-07-16T12:52:24;99320.38;;;27.54;43.92
53546;BME280;39432;51.902;10.844;2023-07-16T12:54:54;99314.59;;;27.44;43.61
53546;BME280;39432;51.902;10.844;2023-07-16T12:57:25;99314.22;;;27.72;43.87
53546;BME280;39432;51.902;10.844;2023-07-16T12:59:54;99318.25;;;26.98;44.29
53546;BME280;39432;51.902;10.844;2023-07-16T13:02:24;99315.75;;;27.16;44.62
53546;BME280;39432;51.902;10.844;2023-07-16T13:04:57;99318.63;;;27.20;44.13
53546;BME280;39432;51.902;10.844;2023-07-16T13:07:27;99329.38;;;27.67;44.67
53546;BME280;39432;51.902;10.844;2023-07-16T13:09:57;99319.72;;;27.65;43.23